Time;durP1;ratioP1;P1;durP2;ratioP2;P2;SDS_P1;SDS_P2;PMS_P1;PMS_P2;Temp;Humidity;BMP_temperature;BMP_pressure;BME280_temperature;BME280_humidity;BME280_pressure;Samples;Min_cycle;Max_cycle;Signal;HPM_P1;HPM_P2
2022/04/06 00:00:34;;;;;;;22.03;18.77;;;;;;;;;;5029349;28;20220;-78
2022/04/06 00:03:00;;;;;;;21.53;18.87;;;;;;;;;;5014025;28;20770;-77
2022/04/06 00:05:25;;;;;;;21.20;19.00;;;;;;;;;;4999897;28;20224;-77
2022/04/06 00:07:54;;;;;;;24.00;20.43;;;;;;;;;;5032214;28;20263;-78
2022/04/06 00:10:25;;;;;;;22.27;19.67;;;;;;;;;;5019749;28;20221;-79
2022/04/06 00:12:53;;;;;;;24.10;19.23;;;;;;;;;;5016191;28;20291;-78
2022/04/06 00:15:21;;;;;;;21.83;18.60;;;;;;;;;;5023843;28;20213;-79
2022/04/06 00:17:48;;;;;;;22.30;19.90;;;;;;;;;;5024448;28;20251;-79
2022/04/06 00:20:17;;;;;;;20.90;17.77;;;;;;;;;;5041354;28;20259;-78
2022/04/06 00:22:42;;;;;;;23.73;18.60;;;;;;;;;;5037749;28;20223;-78
2022/04/06 00:25:08;;;;;;;20.17;18.10;;;;;;;;;;5021601;28;20216;-78
2022/04/06 00:27:34;;;;;;;22.43;18.17;;;;;;;;;;5006105;28;20231;-78
2022/04/06 00:29:59;;;;;;;20.57;18.33;;;;;;;;;;5029212;28;20270;-79
2022/04/06 00:32:27;;;;;;;20.87;18.33;;;;;;;;;;4996506;28;20232;-80
2022/04/06 00:37:39;;;;;;;23.63;18.90;;;;;;;;;;5029970;28;20232;-77
2022/04/06 00:40:06;;;;;;;26.40;20.03;;;;;;;;;;5000582;28;20324;-78
2022/04/06 00:42:34;;;;;;;22.87;19.60;;;;;;;;;;5029278;28;20221;-79
2022/04/06 00:45:03;;;;;;;25.20;19.17;;;;;;;;;;5015589;28;20314;-80
2022/04/06 00:47:30;;;;;;;27.53;19.37;;;;;;;;;;5028603;28;20216;-79
2022/04/06 00:49:56;;;;;;;20.83;18.00;;;;;;;;;;5024890;28;20608;-77
2022/04/06 00:52:23;;;;;;;26.93;19.03;;;;;;;;;;5021868;28;20583;-77
2022/04/06 00:54:51;;;;;;;20.33;18.07;;;;;;;;;;5031360;28;20220;-76
2022/04/06 00:57:16;;;;;;;24.03;18.73;;;;;;;;;;5024684;28;20231;-79
2022/04/06 00:59:46;;;;;;;19.87;17.40;;;;;;;;;;5023892;28;20794;-78
2022/04/06 01:02:12;;;;;;;21.00;16.07;;;;;;;;;;5010644;28;20244;-78
2022/04/06 01:04:40;;;;;;;18.70;14.17;;;;;;;;;;5020235;28;20220;-80
2022/04/06 01:07:05;;;;;;;19.07;14.83;;;;;;;;;;5032986;28;20240;-80
2022/04/06 01:09:31;;;;;;;19.53;14.83;;;;;;;;;;5013067;28;20231;-81
2022/04/06 01:11:56;;;;;;;16.90;13.53;;;;;;;;;;5034431;28;20390;-79
2022/04/06 01:14:24;;;;;;;15.43;13.67;;;;;;;;;;5018170;28;20216;-80
2022/04/06 01:17:01;;;;;;;15.20;13.60;;;;;;;;;;5030162;28;20232;-76
2022/04/06 01:19:40;;;;;;;16.70;13.90;;;;;;;;;;5012645;28;20610;-77
2022/04/06 01:22:12;;;;;;;16.07;13.30;;;;;;;;;;5029603;28;20235;-79
2022/04/06 01:24:43;;;;;;;14.90;13.23;;;;;;;;;;5033127;28;20767;-79
2022/04/06 01:27:08;;;;;;;14.10;12.37;;;;;;;;;;5021482;28;20251;-80
2022/04/06 01:29:38;;;;;;;18.27;13.50;;;;;;;;;;5029321;28;20343;-78
2022/04/06 01:32:08;;;;;;;14.87;13.37;;;;;;;;;;5019457;28;20221;-77
2022/04/06 01:34:36;;;;;;;16.17;13.33;;;;;;;;;;5031712;28;20248;-77
2022/04/06 01:37:03;;;;;;;14.63;12.97;;;;;;;;;;5018257;28;20255;-79
2022/04/06 01:39:29;;;;;;;15.20;12.60;;;;;;;;;;5026158;28;20228;-81
2022/04/06 01:41:54;;;;;;;14.33;12.77;;;;;;;;;;5013921;28;20224;-79
2022/04/06 01:44:20;;;;;;;17.37;12.87;;;;;;;;;;5039732;28;20215;-80
2022/04/06 01:46:49;;;;;;;15.40;13.03;;;;;;;;;;5024708;28;20303;-78
2022/04/06 01:52:13;;;;;;;14.93;12.70;;;;;;;;;;5023842;28;20689;-78
2022/04/06 01:55:04;;;;;;;16.50;13.63;;;;;;;;;;5020002;28;20335;-78
2022/04/06 01:57:30;;;;;;;17.70;13.47;;;;;;;;;;5028684;28;20231;-79
2022/04/06 01:59:58;;;;;;;15.27;13.63;;;;;;;;;;5021700;28;20711;-79
2022/04/06 02:02:27;;;;;;;15.50;13.90;;;;;;;;;;5025146;28;20212;-77
2022/04/06 02:04:52;;;;;;;18.27;14.10;;;;;;;;;;5012400;28;20208;-78
2022/04/06 02:07:18;;;;;;;16.47;14.77;;;;;;;;;;5018058;28;20229;-78
2022/04/06 02:09:44;;;;;;;17.30;15.20;;;;;;;;;;5013682;28;20220;-77
2022/04/06 02:12:10;;;;;;;21.00;15.07;;;;;;;;;;5022081;28;20698;-78
2022/04/06 02:14:35;;;;;;;19.27;14.83;;;;;;;;;;5028451;28;20270;-78
2022/04/06 02:17:03;;;;;;;22.57;15.97;;;;;;;;;;5033168;28;20224;-78
2022/04/06 02:19:34;;;;;;;21.37;15.90;;;;;;;;;;5000105;28;20598;-79
2022/04/06 02:21:59;;;;;;;17.77;15.70;;;;;;;;;;5031175;28;20737;-78
2022/04/06 02:24:27;;;;;;;19.37;16.17;;;;;;;;;;5019458;28;20217;-77
2022/04/06 02:26:52;;;;;;;21.10;16.13;;;;;;;;;;5024138;28;20579;-77
2022/04/06 02:29:22;;;;;;;19.40;16.83;;;;;;;;;;5022109;28;20231;-78
2022/04/06 02:31:48;;;;;;;20.20;16.50;;;;;;;;;;5017462;28;20251;-79
2022/04/06 02:34:15;;;;;;;23.17;17.10;;;;;;;;;;5024849;28;20220;-78
2022/04/06 02:36:43;;;;;;;23.20;18.20;;;;;;;;;;5016775;28;20225;-78
2022/04/06 02:39:08;;;;;;;20.03;17.83;;;;;;;;;;5022854;28;20345;-79
2022/04/06 02:41:37;;;;;;;20.63;18.07;;;;;;;;;;5021045;28;20303;-78
2022/04/06 02:44:05;;;;;;;24.63;19.00;;;;;;;;;;5030784;28;20303;-79
2022/04/06 02:46:31;;;;;;;22.27;19.13;;;;;;;;;;5001144;28;20232;-78
2022/04/06 02:48:57;;;;;;;21.83;18.80;;;;;;;;;;5018503;28;20227;-79
2022/04/06 02:51:25;;;;;;;25.23;19.27;;;;;;;;;;5030603;28;20705;-77
2022/04/06 02:53:55;;;;;;;22.53;20.10;;;;;;;;;;5033578;28;20220;-80
2022/04/06 02:56:21;;;;;;;25.23;21.63;;;;;;;;;;5016797;28;20240;-78
2022/04/06 02:58:48;;;;;;;27.13;20.73;;;;;;;;;;5014574;28;20228;-77
2022/04/06 03:01:14;;;;;;;25.57;19.77;;;;;;;;;;5003024;28;20282;-78
2022/04/06 03:03:42;;;;;;;27.53;22.73;;;;;;;;;;5024230;28;20610;-78
2022/04/06 03:06:10;;;;;;;31.60;22.83;;;;;;;;;;5039780;28;20275;-78
2022/04/06 03:08:35;;;;;;;26.43;22.10;;;;;;;;;;5031708;28;20243;-77
2022/04/06 03:11:03;;;;;;;26.63;22.93;;;;;;;;;;5026197;28;20252;-78
2022/04/06 03:13:28;;;;;;;28.90;23.27;;;;;;;;;;5026881;28;20228;-79
2022/04/06 03:15:54;;;;;;;30.37;24.33;;;;;;;;;;5010369;28;20705;-77
2022/04/06 03:18:20;;;;;;;29.93;24.13;;;;;;;;;;5016731;28;20231;-78
2022/04/06 03:20:46;;;;;;;33.50;26.30;;;;;;;;;;5016312;28;20247;-78
2022/04/06 03:23:12;;;;;;;29.70;26.50;;;;;;;;;;5021724;28;20217;-79
2022/04/06 03:25:40;;;;;;;34.30;26.27;;;;;;;;;;5014794;28;20224;-78
2022/04/06 03:28:07;;;;;;;33.33;27.23;;;;;;;;;;5008140;28;20602;-78
2022/04/06 03:30:33;;;;;;;36.37;28.73;;;;;;;;;;5026670;28;20313;-76
2022/04/06 03:32:58;;;;;;;35.97;29.33;;;;;;;;;;5026363;28;21103;-78
2022/04/06 03:35:24;;;;;;;34.63;29.23;;;;;;;;;;5024240;28;20237;-79
2022/04/06 03:37:54;;;;;;;39.27;29.43;;;;;;;;;;5043779;28;20231;-77
2022/04/06 03:40:22;;;;;;;39.73;29.83;;;;;;;;;;5041493;28;20232;-77
2022/04/06 03:42:48;;;;;;;42.07;30.27;;;;;;;;;;5057789;28;20223;-81
2022/04/06 03:45:13;;;;;;;39.43;30.33;;;;;;;;;;5071858;22;20246;-78
2022/04/06 03:47:44;;;;;;;44.70;32.07;;;;;;;;;;5035184;28;20236;-78
2022/04/06 03:50:13;;;;;;;40.73;32.10;;;;;;;;;;5033780;23;20264;-83
2022/04/06 03:52:41;;;;;;;40.90;31.77;;;;;;;;;;4990415;28;20260;-82
2022/04/06 03:55:09;;;;;;;39.63;32.47;;;;;;;;;;5023733;28;20229;-81
2022/04/06 03:57:37;;;;;;;46.40;34.17;;;;;;;;;;5014809;28;20217;-85
2022/04/06 04:00:04;;;;;;;47.03;32.57;;;;;;;;;;5016845;28;20593;-83
2022/04/06 04:02:32;;;;;;;44.40;34.07;;;;;;;;;;5051838;22;20235;-80
2022/04/06 04:04:58;;;;;;;45.93;34.30;;;;;;;;;;5018090;28;20690;-80
2022/04/06 04:07:29;;;;;;;42.40;34.10;;;;;;;;;;5025499;28;20239;-79
2022/04/06 04:09:57;;;;;;;46.27;34.57;;;;;;;;;;5023341;28;20654;-79
2022/04/06 04:12:25;;;;;;;43.67;33.57;;;;;;;;;;5039648;28;20607;-78
2022/04/06 04:14:50;;;;;;;44.97;34.53;;;;;;;;;;5033449;28;20250;-78
2022/04/06 04:17:15;;;;;;;45.37;35.27;;;;;;;;;;5025629;28;20303;-78
2022/04/06 04:19:41;;;;;;;43.10;34.57;;;;;;;;;;4997955;28;20328;-78
2022/04/06 04:22:06;;;;;;;45.53;34.63;;;;;;;;;;5014926;28;20251;-79
2022/04/06 04:24:32;;;;;;;52.13;35.67;;;;;;;;;;5013533;28;20602;-78
2022/04/06 04:26:58;;;;;;;48.37;35.37;;;;;;;;;;5005318;28;20269;-77
2022/04/06 04:29:26;;;;;;;47.23;35.87;;;;;;;;;;4991697;28;20585;-78
2022/04/06 04:31:54;;;;;;;50.63;36.17;;;;;;;;;;5021021;28;20269;-78
2022/04/06 04:34:20;;;;;;;48.67;35.97;;;;;;;;;;5031367;28;20228;-77
2022/04/06 04:36:45;;;;;;;50.60;35.13;;;;;;;;;;5028482;28;20221;-79
2022/04/06 04:39:15;;;;;;;47.00;35.33;;;;;;;;;;5022499;28;20212;-78
2022/04/06 04:41:45;;;;;;;42.63;34.00;;;;;;;;;;5026853;28;20768;-78
2022/04/06 04:44:15;;;;;;;44.43;33.93;;;;;;;;;;4990658;28;20211;-77
2022/04/06 04:46:43;;;;;;;45.37;34.17;;;;;;;;;;5023658;28;20657;-78
2022/04/06 04:49:09;;;;;;;43.80;33.90;;;;;;;;;;5009951;28;20842;-78
2022/04/06 04:51:36;;;;;;;50.13;35.17;;;;;;;;;;5021546;28;20224;-80
2022/04/06 04:54:02;;;;;;;40.47;33.10;;;;;;;;;;4990993;28;20303;-78
2022/04/06 04:56:30;;;;;;;45.40;33.07;;;;;;;;;;5014028;28;20307;-78
2022/04/06 04:58:56;;;;;;;41.63;33.83;;;;;;;;;;5017874;28;20221;-78
2022/04/06 05:01:22;;;;;;;40.73;32.07;;;;;;;;;;4996349;28;20224;-79
2022/04/06 05:03:48;;;;;;;42.50;31.70;;;;;;;;;;5037822;28;20299;-77
2022/04/06 05:06:16;;;;;;;42.70;31.70;;;;;;;;;;5032326;28;20229;-77
2022/04/06 05:08:44;;;;;;;40.80;32.70;;;;;;;;;;5032186;28;20319;-77
2022/04/06 05:11:10;;;;;;;39.20;31.03;;;;;;;;;;5030619;28;20464;-78
2022/04/06 05:13:37;;;;;;;38.70;30.67;;;;;;;;;;5031358;28;20220;-79
2022/04/06 05:16:03;;;;;;;41.43;28.40;;;;;;;;;;5033927;28;20609;-79
2022/04/06 05:18:31;;;;;;;36.80;27.47;;;;;;;;;;5016717;28;20224;-79
2022/04/06 05:20:57;;;;;;;36.17;27.20;;;;;;;;;;5020261;28;20756;-79
2022/04/06 05:23:22;;;;;;;33.67;24.80;;;;;;;;;;5021315;28;20229;-79
2022/04/06 05:25:53;;;;;;;34.73;25.57;;;;;;;;;;5030440;28;20232;-78
2022/04/06 05:28:18;;;;;;;33.67;24.37;;;;;;;;;;5023084;28;20729;-80
2022/04/06 05:30:46;;;;;;;31.43;23.83;;;;;;;;;;5028747;28;20225;-78
2022/04/06 05:33:18;;;;;;;27.97;23.70;;;;;;;;;;5037727;28;20244;-79
2022/04/06 05:35:50;;;;;;;30.10;22.70;;;;;;;;;;5005999;28;20229;-81
2022/04/06 05:38:22;;;;;;;30.40;22.10;;;;;;;;;;5033027;28;20235;-80
2022/04/06 05:40:58;;;;;;;27.10;21.37;;;;;;;;;;5032715;28;20206;-82
2022/04/06 05:43:24;;;;;;;27.87;20.43;;;;;;;;;;5004623;28;20226;-80
2022/04/06 05:45:52;;;;;;;27.43;20.03;;;;;;;;;;5009881;28;20256;-79
2022/04/06 05:48:20;;;;;;;25.43;19.70;;;;;;;;;;5042193;28;20291;-78
2022/04/06 05:50:45;;;;;;;25.63;18.47;;;;;;;;;;5001213;28;20279;-80
2022/04/06 05:53:11;;;;;;;22.43;17.30;;;;;;;;;;5026033;28;20739;-78
2022/04/06 05:55:37;;;;;;;21.97;17.37;;;;;;;;;;4999671;28;20344;-78
2022/04/06 05:58:04;;;;;;;26.83;18.73;;;;;;;;;;4996887;28;20248;-79
2022/04/06 06:00:30;;;;;;;23.53;17.30;;;;;;;;;;5038335;28;20761;-78
2022/04/06 06:02:56;;;;;;;23.10;17.03;;;;;;;;;;5049313;28;20341;-79
2022/04/06 06:05:21;;;;;;;22.20;16.43;;;;;;;;;;5034076;28;20220;-80
2022/04/06 06:07:47;;;;;;;23.03;16.57;;;;;;;;;;5020945;28;20250;-79
2022/04/06 06:10:15;;;;;;;25.40;16.30;;;;;;;;;;5024976;28;20678;-80
2022/04/06 06:12:43;;;;;;;22.07;17.00;;;;;;;;;;5027029;28;20223;-79
2022/04/06 06:15:08;;;;;;;20.97;17.37;;;;;;;;;;5023124;28;20283;-79
2022/04/06 06:17:41;;;;;;;23.73;16.97;;;;;;;;;;5014341;28;20224;-80
2022/04/06 06:20:06;;;;;;;20.37;16.13;;;;;;;;;;5007050;28;20223;-79
2022/04/06 06:22:34;;;;;;;23.07;16.83;;;;;;;;;;5009919;28;20227;-78
2022/04/06 06:25:00;;;;;;;18.77;16.57;;;;;;;;;;5034336;28;20224;-79
2022/04/06 06:27:26;;;;;;;22.90;16.30;;;;;;;;;;5045281;28;20232;-79
2022/04/06 06:29:51;;;;;;;22.57;15.90;;;;;;;;;;5029373;28;20605;-78
2022/04/06 06:32:17;;;;;;;19.67;15.47;;;;;;;;;;4997637;28;20247;-78
2022/04/06 06:34:42;;;;;;;19.43;16.20;;;;;;;;;;5048331;28;20229;-78
2022/04/06 06:37:13;;;;;;;22.40;15.87;;;;;;;;;;5027944;28;20220;-79
2022/04/06 06:39:38;;;;;;;22.90;16.27;;;;;;;;;;5032421;28;20220;-77
2022/04/06 06:42:06;;;;;;;20.00;15.90;;;;;;;;;;5055454;28;20218;-79
2022/04/06 06:44:37;;;;;;;21.67;15.43;;;;;;;;;;5053788;28;20227;-76
2022/04/06 06:47:03;;;;;;;21.10;16.20;;;;;;;;;;5045376;28;20227;-78
2022/04/06 06:49:31;;;;;;;21.67;15.53;;;;;;;;;;5040140;28;20220;-76
2022/04/06 06:51:58;;;;;;;19.77;15.70;;;;;;;;;;5049172;28;20220;-76
2022/04/06 06:54:24;;;;;;;19.93;14.73;;;;;;;;;;5038968;28;20220;-75
2022/04/06 06:56:50;;;;;;;20.13;16.00;;;;;;;;;;5027835;28;20232;-77
2022/04/06 06:59:17;;;;;;;21.73;15.73;;;;;;;;;;5026522;28;20211;-78
2022/04/06 07:01:45;;;;;;;21.17;15.40;;;;;;;;;;5045018;28;20224;-78
2022/04/06 07:04:11;;;;;;;21.77;15.37;;;;;;;;;;5010147;28;20246;-78
2022/04/06 07:06:38;;;;;;;19.20;15.53;;;;;;;;;;5029951;28;20228;-79
2022/04/06 07:09:22;;;;;;;18.30;15.53;;;;;;;;;;5031344;28;20204;-79
2022/04/06 07:12:18;;;;;;;21.43;14.77;;;;;;;;;;5018012;28;20611;-81
2022/04/06 07:14:43;;;;;;;21.53;16.40;;;;;;;;;;5029594;28;20229;-78
2022/04/06 07:17:09;;;;;;;17.53;14.87;;;;;;;;;;5029803;28;20254;-81
2022/04/06 07:19:37;;;;;;;19.80;16.20;;;;;;;;;;5036095;28;20228;-79
2022/04/06 07:22:02;;;;;;;21.10;16.90;;;;;;;;;;5006377;28;20235;-79
2022/04/06 07:24:28;;;;;;;20.40;16.07;;;;;;;;;;5012302;28;20430;-79
2022/04/06 07:26:53;;;;;;;23.93;16.67;;;;;;;;;;5040472;28;20223;-79
2022/04/06 07:29:19;;;;;;;19.90;16.10;;;;;;;;;;5012759;28;20255;-80
2022/04/06 07:31:44;;;;;;;20.90;15.90;;;;;;;;;;5038276;28;20303;-80
2022/04/06 07:34:10;;;;;;;20.40;15.37;;;;;;;;;;5028349;28;20248;-77
2022/04/06 07:36:38;;;;;;;21.33;15.67;;;;;;;;;;5031134;28;20243;-78
2022/04/06 07:39:03;;;;;;;20.13;15.47;;;;;;;;;;5035087;28;20259;-79
2022/04/06 07:41:30;;;;;;;19.50;15.23;;;;;;;;;;5031418;28;20285;-77
2022/04/06 07:43:55;;;;;;;18.87;14.93;;;;;;;;;;5016096;28;20228;-78
2022/04/06 07:46:20;;;;;;;18.30;15.00;;;;;;;;;;5039036;28;20256;-79
2022/04/06 07:48:48;;;;;;;22.13;14.97;;;;;;;;;;5017507;28;20216;-79
2022/04/06 07:51:14;;;;;;;20.07;14.97;;;;;;;;;;5031590;28;20232;-78
2022/04/06 07:53:42;;;;;;;22.63;14.73;;;;;;;;;;5026802;28;20212;-80
2022/04/06 07:56:08;;;;;;;16.13;12.97;;;;;;;;;;5031647;28;20706;-79
2022/04/06 07:58:34;;;;;;;16.27;12.67;;;;;;;;;;5008185;28;20223;-79
2022/04/06 08:01:05;;;;;;;14.30;12.50;;;;;;;;;;5020179;28;20236;-78
2022/04/06 08:03:33;;;;;;;16.90;12.80;;;;;;;;;;5018212;28;20223;-78
2022/04/06 08:06:01;;;;;;;16.67;12.80;;;;;;;;;;5032921;28;20220;-78
2022/04/06 08:08:31;;;;;;;14.37;11.80;;;;;;;;;;5019702;28;20275;-78
2022/04/06 08:10:59;;;;;;;17.33;11.30;;;;;;;;;;5036121;28;20224;-79
2022/04/06 08:13:25;;;;;;;16.30;10.97;;;;;;;;;;5037728;28;20224;-79
2022/04/06 08:15:55;;;;;;;16.23;10.67;;;;;;;;;;5024662;28;20277;-78
2022/04/06 08:18:22;;;;;;;15.30;10.50;;;;;;;;;;4999476;28;20701;-77
2022/04/06 08:20:52;;;;;;;14.10;10.33;;;;;;;;;;5030889;28;20242;-79
2022/04/06 08:23:19;;;;;;;15.37;9.20;;;;;;;;;;5006630;28;20320;-79
2022/04/06 08:25:46;;;;;;;14.03;9.57;;;;;;;;;;5026462;28;20224;-77
2022/04/06 08:28:12;;;;;;;12.97;8.63;;;;;;;;;;5017550;28;20236;-78
2022/04/06 08:30:42;;;;;;;14.80;8.73;;;;;;;;;;5011327;28;20223;-78
2022/04/06 08:33:10;;;;;;;13.67;8.27;;;;;;;;;;5031114;28;20250;-79
2022/04/06 08:35:38;;;;;;;11.20;7.87;;;;;;;;;;5015357;28;20320;-78
2022/04/06 08:38:06;;;;;;;11.30;7.90;;;;;;;;;;5026210;28;20471;-78
2022/04/06 08:40:37;;;;;;;12.13;7.80;;;;;;;;;;5006916;28;20722;-79
2022/04/06 08:43:05;;;;;;;12.67;7.37;;;;;;;;;;5038284;28;20284;-80
2022/04/06 08:45:32;;;;;;;13.43;7.57;;;;;;;;;;5013744;28;20227;-79
2022/04/06 08:48:00;;;;;;;11.47;6.30;;;;;;;;;;5014878;28;20235;-79
2022/04/06 08:50:29;;;;;;;11.13;6.97;;;;;;;;;;5016955;28;20216;-78
2022/04/06 08:53:03;;;;;;;11.10;6.87;;;;;;;;;;5024770;28;20244;-78
2022/04/06 08:55:31;;;;;;;11.20;6.67;;;;;;;;;;5015961;28;20216;-78
2022/04/06 08:57:57;;;;;;;10.13;5.93;;;;;;;;;;5043671;28;20223;-79
2022/04/06 09:00:26;;;;;;;8.93;6.03;;;;;;;;;;5032136;28;20220;-78
2022/04/06 09:02:54;;;;;;;8.93;5.80;;;;;;;;;;5035201;28;20220;-79
2022/04/06 09:05:28;;;;;;;11.73;5.80;;;;;;;;;;5013288;28;20236;-78
2022/04/06 09:07:59;;;;;;;10.57;5.57;;;;;;;;;;5014151;28;20262;-79
2022/04/06 09:10:37;;;;;;;10.27;5.80;;;;;;;;;;5039755;28;20221;-78
2022/04/06 09:13:19;;;;;;;11.03;5.93;;;;;;;;;;5013711;28;20228;-78
2022/04/06 09:15:44;;;;;;;10.27;5.73;;;;;;;;;;5009546;28;20228;-78
2022/04/06 09:18:10;;;;;;;10.87;5.73;;;;;;;;;;5009063;28;20232;-81
2022/04/06 09:20:38;;;;;;;10.27;5.60;;;;;;;;;;5032688;28;20221;-78
2022/04/06 09:23:03;;;;;;;10.23;5.93;;;;;;;;;;4997894;28;20223;-77
2022/04/06 09:25:36;;;;;;;8.70;5.57;;;;;;;;;;5039269;28;20692;-80
2022/04/06 09:28:12;;;;;;;11.10;5.83;;;;;;;;;;5028915;28;20236;-79
2022/04/06 09:30:45;;;;;;;8.00;5.70;;;;;;;;;;5015194;28;20247;-79
2022/04/06 09:33:14;;;;;;;8.67;5.17;;;;;;;;;;5011061;28;20225;-78
2022/04/06 09:35:40;;;;;;;9.07;5.30;;;;;;;;;;5008549;28;20254;-79
2022/04/06 09:38:11;;;;;;;9.90;5.00;;;;;;;;;;5015035;28;20224;-80
2022/04/06 09:40:39;;;;;;;8.47;4.60;;;;;;;;;;5021942;28;20226;-79
2022/04/06 09:43:06;;;;;;;7.10;4.40;;;;;;;;;;4999533;28;20225;-81
2022/04/06 09:48:16;;;;;;;10.60;5.03;;;;;;;;;;5018532;28;20220;-78
2022/04/06 09:50:43;;;;;;;10.73;4.60;;;;;;;;;;5023479;28;20229;-79
2022/04/06 09:53:09;;;;;;;8.97;4.47;;;;;;;;;;5009194;28;20239;-79
2022/04/06 09:55:37;;;;;;;7.70;4.37;;;;;;;;;;5011904;28;20228;-80
2022/04/06 09:58:03;;;;;;;8.00;4.97;;;;;;;;;;5002978;28;20275;-79
2022/04/06 10:00:30;;;;;;;6.73;4.63;;;;;;;;;;5027981;28;20606;-78
2022/04/06 10:03:08;;;;;;;7.70;4.50;;;;;;;;;;5035295;28;20278;-79
2022/04/06 10:05:35;;;;;;;9.00;4.40;;;;;;;;;;5019106;28;20227;-79
2022/04/06 10:08:09;;;;;;;9.07;4.27;;;;;;;;;;5019998;28;20235;-78
2022/04/06 10:10:36;;;;;;;7.63;5.00;;;;;;;;;;5024687;28;20277;-80
2022/04/06 10:13:04;;;;;;;7.23;4.10;;;;;;;;;;5009945;28;20667;-79
2022/04/06 10:15:30;;;;;;;8.50;4.60;;;;;;;;;;4992704;28;20217;-78
2022/04/06 10:17:55;;;;;;;10.47;4.73;;;;;;;;;;5003125;28;20230;-79
2022/04/06 10:20:38;;;;;;;7.83;4.17;;;;;;;;;;5005363;28;20297;-80
2022/04/06 10:23:16;;;;;;;6.97;3.90;;;;;;;;;;5014782;28;20274;-80
2022/04/06 10:25:54;;;;;;;11.60;4.43;;;;;;;;;;5011241;28;20250;-80
2022/04/06 10:28:23;;;;;;;8.97;4.47;;;;;;;;;;5001940;28;20586;-80
2022/04/06 10:31:18;;;;;;;8.17;4.33;;;;;;;;;;5027595;28;20235;-78
2022/04/06 10:33:46;;;;;;;9.30;4.83;;;;;;;;;;5020077;28;20310;-78
2022/04/06 10:36:18;;;;;;;6.77;3.80;;;;;;;;;;5010032;28;20647;-81
2022/04/06 10:39:06;;;;;;;9.33;4.10;;;;;;;;;;5025898;28;20720;-79
2022/04/06 10:41:35;;;;;;;7.57;4.00;;;;;;;;;;5037515;28;20227;-78
2022/04/06 10:44:03;;;;;;;7.60;4.10;;;;;;;;;;4995311;28;20220;-78
2022/04/06 10:46:41;;;;;;;7.40;4.20;;;;;;;;;;5006288;28;20273;-80
2022/04/06 10:49:10;;;;;;;8.60;4.90;;;;;;;;;;5038989;28;20282;-78
2022/04/06 10:51:39;;;;;;;6.17;3.93;;;;;;;;;;5034995;28;20235;-79
2022/04/06 10:54:12;;;;;;;7.30;3.80;;;;;;;;;;5004712;28;20216;-79
2022/04/06 10:56:50;;;;;;;7.47;3.60;;;;;;;;;;5037779;28;20317;-79
2022/04/06 10:59:18;;;;;;;7.80;3.97;;;;;;;;;;5028047;28;20591;-79
2022/04/06 11:01:48;;;;;;;6.77;3.90;;;;;;;;;;5030750;28;20217;-79
2022/04/06 11:04:20;;;;;;;9.00;4.40;;;;;;;;;;4995545;28;20220;-78
2022/04/06 11:06:59;;;;;;;7.43;4.57;;;;;;;;;;5029878;28;20256;-79
2022/04/06 11:12:14;;;;;;;7.10;4.60;;;;;;;;;;5026408;28;20220;-77
2022/04/06 11:14:40;;;;;;;10.90;5.70;;;;;;;;;;5002942;28;20227;-79
2022/04/06 11:17:42;;;;;;;8.67;5.10;;;;;;;;;;5040278;28;20224;-78
2022/04/06 11:20:15;;;;;;;8.27;5.37;;;;;;;;;;5034082;28;20225;-78
2022/04/06 11:22:53;;;;;;;11.40;5.30;;;;;;;;;;5005260;28;20227;-79
2022/04/06 11:25:23;;;;;;;8.10;5.33;;;;;;;;;;5006683;28;20220;-78
2022/04/06 11:27:51;;;;;;;8.70;5.93;;;;;;;;;;5022896;28;20229;-79
2022/04/06 11:30:18;;;;;;;7.90;5.40;;;;;;;;;;5034678;28;20307;-80
2022/04/06 11:32:51;;;;;;;10.57;5.70;;;;;;;;;;5027888;28;20315;-79
2022/04/06 11:35:17;;;;;;;6.17;4.90;;;;;;;;;;5030528;28;20292;-80
2022/04/06 11:37:49;;;;;;;8.17;5.10;;;;;;;;;;4997679;28;20255;-80
2022/04/06 11:40:21;;;;;;;7.23;4.90;;;;;;;;;;5002719;28;20228;-79
2022/04/06 11:42:56;;;;;;;10.03;4.70;;;;;;;;;;5029988;28;20262;-78
2022/04/06 11:45:34;;;;;;;8.30;4.70;;;;;;;;;;5009876;28;20263;-77
2022/04/06 11:48:01;;;;;;;6.40;4.23;;;;;;;;;;5032547;28;20240;-81
2022/04/06 11:50:38;;;;;;;7.03;4.17;;;;;;;;;;5009967;28;20220;-80
2022/04/06 11:53:20;;;;;;;7.40;4.23;;;;;;;;;;5031936;28;20295;-79
2022/04/06 11:55:54;;;;;;;4.60;4.13;;;;;;;;;;5020816;28;20235;-77
2022/04/06 11:58:36;;;;;;;7.30;4.40;;;;;;;;;;5005298;28;20247;-79
2022/04/06 12:01:05;;;;;;;5.87;3.60;;;;;;;;;;5005455;28;20216;-80
2022/04/06 12:03:39;;;;;;;6.80;3.70;;;;;;;;;;5022717;28;20231;-79
2022/04/06 12:06:11;;;;;;;6.17;3.80;;;;;;;;;;5003898;28;20235;-78
2022/04/06 12:08:41;;;;;;;5.47;3.30;;;;;;;;;;5019943;28;20242;-81
2022/04/06 12:11:07;;;;;;;6.73;3.63;;;;;;;;;;5010108;28;20236;-80
2022/04/06 12:13:37;;;;;;;7.50;3.77;;;;;;;;;;5034969;28;20714;-78
2022/04/06 12:16:04;;;;;;;5.77;3.30;;;;;;;;;;5015406;28;20204;-78
2022/04/06 12:18:29;;;;;;;5.23;3.20;;;;;;;;;;5030478;28;20219;-77
2022/04/06 12:21:00;;;;;;;6.07;3.50;;;;;;;;;;5047418;28;20240;-78
2022/04/06 12:23:29;;;;;;;7.40;4.30;;;;;;;;;;5044371;28;20217;-77
2022/04/06 12:25:59;;;;;;;6.17;3.40;;;;;;;;;;5035606;28;20212;-77
2022/04/06 12:28:25;;;;;;;5.37;3.30;;;;;;;;;;5028058;28;20236;-78
2022/04/06 12:30:55;;;;;;;4.53;3.30;;;;;;;;;;5049608;28;20219;-78
2022/04/06 12:33:50;;;;;;;5.97;3.43;;;;;;;;;;5041644;28;20232;-80
2022/04/06 12:36:26;;;;;;;6.97;3.70;;;;;;;;;;5059147;28;20259;-79
2022/04/06 12:39:11;;;;;;;6.87;3.70;;;;;;;;;;5008246;28;20220;-78
2022/04/06 12:42:04;;;;;;;5.63;3.33;;;;;;;;;;5025931;28;20224;-80
2022/04/06 12:44:38;;;;;;;5.20;3.30;;;;;;;;;;5032457;28;20627;-78
2022/04/06 12:47:08;;;;;;;7.33;3.50;;;;;;;;;;5014728;28;20316;-77
2022/04/06 12:49:42;;;;;;;6.13;3.90;;;;;;;;;;5014348;28;20265;-78
2022/04/06 12:52:20;;;;;;;6.80;3.53;;;;;;;;;;5009903;28;20270;-77
2022/04/06 12:55:03;;;;;;;6.53;3.80;;;;;;;;;;5001189;28;20216;-79
2022/04/06 12:57:31;;;;;;;6.13;3.90;;;;;;;;;;5028048;28;20761;-78
2022/04/06 13:00:00;;;;;;;7.70;3.80;;;;;;;;;;5003198;28;20223;-77
2022/04/06 13:02:36;;;;;;;6.43;4.00;;;;;;;;;;5032836;28;20231;-76
2022/04/06 13:05:03;;;;;;;7.10;4.50;;;;;;;;;;5004502;28;20232;-77
2022/04/06 13:07:31;;;;;;;6.93;4.17;;;;;;;;;;5043842;28;20241;-77
2022/04/06 13:09:59;;;;;;;8.30;4.90;;;;;;;;;;5016831;28;20216;-77
2022/04/06 13:12:30;;;;;;;7.07;5.17;;;;;;;;;;5019176;28;20916;-77
2022/04/06 13:14:57;;;;;;;6.60;4.80;;;;;;;;;;5019566;28;20223;-77
2022/04/06 13:17:25;;;;;;;6.10;5.10;;;;;;;;;;5007707;28;20258;-77
2022/04/06 13:19:51;;;;;;;6.27;5.67;;;;;;;;;;5015733;28;20235;-76
2022/04/06 13:22:16;;;;;;;7.23;6.00;;;;;;;;;;5008908;28;20614;-76
2022/04/06 13:24:42;;;;;;;6.87;5.70;;;;;;;;;;5016052;28;20228;-77
2022/04/06 13:27:08;;;;;;;6.47;5.80;;;;;;;;;;4997470;28;20722;-76
2022/04/06 13:29:33;;;;;;;7.03;5.93;;;;;;;;;;5024362;28;20246;-75
2022/04/06 13:32:00;;;;;;;7.40;6.00;;;;;;;;;;5014953;28;20227;-77
2022/04/06 13:34:25;;;;;;;6.80;6.20;;;;;;;;;;4999737;28;20227;-77
2022/04/06 13:36:51;;;;;;;6.00;5.50;;;;;;;;;;5017377;28;20232;-77
2022/04/06 13:39:16;;;;;;;6.83;6.13;;;;;;;;;;5005455;28;20240;-77
2022/04/06 13:41:44;;;;;;;7.60;6.37;;;;;;;;;;5029049;28;20220;-77
2022/04/06 13:44:10;;;;;;;6.47;5.83;;;;;;;;;;5034867;28;20620;-76
2022/04/06 13:46:45;;;;;;;7.33;6.10;;;;;;;;;;5002309;28;20297;-77
2022/04/06 13:49:12;;;;;;;6.27;5.67;;;;;;;;;;5022868;28;20230;-76
2022/04/06 13:51:39;;;;;;;7.87;6.43;;;;;;;;;;5025226;28;20351;-77
2022/04/06 13:54:49;;;;;;;6.77;6.27;;;;;;;;;;5012692;28;20235;-77
2022/04/06 13:57:17;;;;;;;7.00;6.30;;;;;;;;;;5018270;28;20302;-76
2022/04/06 13:59:48;;;;;;;7.23;6.50;;;;;;;;;;5024727;28;20213;-77
2022/04/06 14:02:13;;;;;;;7.70;7.00;;;;;;;;;;5022910;28;20237;-77
2022/04/06 14:04:41;;;;;;;7.70;6.90;;;;;;;;;;5010043;28;20239;-78
2022/04/06 14:07:09;;;;;;;7.40;6.70;;;;;;;;;;5014024;28;20228;-78
2022/04/06 14:09:34;;;;;;;7.53;6.87;;;;;;;;;;5026948;28;20220;-77
2022/04/06 14:12:03;;;;;;;7.20;6.60;;;;;;;;;;5044642;28;20247;-77
2022/04/06 14:14:28;;;;;;;8.00;7.30;;;;;;;;;;5015430;28;20220;-76
2022/04/06 14:17:02;;;;;;;8.80;7.17;;;;;;;;;;5012860;28;20567;-78
2022/04/06 14:19:28;;;;;;;7.67;7.03;;;;;;;;;;4994184;28;20693;-76
2022/04/06 14:21:54;;;;;;;7.53;6.93;;;;;;;;;;5042786;28;20232;-77
2022/04/06 14:24:20;;;;;;;8.57;7.70;;;;;;;;;;5031827;28;20255;-77
2022/04/06 14:26:45;;;;;;;8.10;7.30;;;;;;;;;;5027337;28;20226;-77
2022/04/06 14:29:13;;;;;;;7.77;6.97;;;;;;;;;;5011939;28;20217;-77
2022/04/06 14:31:40;;;;;;;8.03;7.20;;;;;;;;;;5008103;28;20220;-76
2022/04/06 14:34:09;;;;;;;8.13;7.43;;;;;;;;;;5027380;28;20219;-76
2022/04/06 14:36:35;;;;;;;7.80;7.00;;;;;;;;;;5024686;28;20733;-77
2022/04/06 14:39:01;;;;;;;8.67;7.40;;;;;;;;;;5030433;28;20378;-77
2022/04/06 14:41:29;;;;;;;7.17;6.67;;;;;;;;;;5026570;28;20290;-75
2022/04/06 14:43:55;;;;;;;7.03;6.43;;;;;;;;;;5034528;28;20287;-77
2022/04/06 14:46:25;;;;;;;7.30;6.50;;;;;;;;;;5015035;28;20233;-77